createdAt,value
2019-04-07T00:01:24.158Z,104.60
2019-04-07T00:03:51.671Z,101.03
2019-04-07T00:06:19.352Z,111.50
2019-04-07T00:08:46.678Z,113.67
2019-04-07T00:11:14.033Z,117.50
2019-04-07T00:13:41.459Z,114.60
2019-04-07T00:16:08.815Z,114.40
2019-04-07T00:18:36.139Z,114.37
2019-04-07T00:21:03.956Z,108.77
2019-04-07T00:23:31.946Z,109.37
2019-04-07T00:26:00.152Z,116.83
2019-04-07T00:28:27.681Z,119.40
2019-04-07T00:30:54.996Z,117.93
2019-04-07T00:33:22.523Z,113.40
2019-04-07T00:35:49.912Z,122.23
2019-04-07T00:38:17.726Z,121.97
2019-04-07T00:40:45.181Z,121.80
2019-04-07T00:43:13.622Z,127.23
2019-04-07T00:45:41.564Z,119.37
2019-04-07T00:48:09.122Z,119.90
2019-04-07T00:50:36.486Z,118.33
2019-04-07T00:53:04.458Z,126.60
2019-04-07T00:55:32.177Z,124.63
2019-04-07T00:57:59.610Z,128.50
2019-04-07T01:00:29.081Z,126.80
2019-04-07T01:02:56.800Z,114.13
2019-04-07T01:05:34.199Z,115.07
2019-04-07T01:07:53.187Z,118.27
2019-04-07T01:10:20.550Z,119.07
2019-04-07T01:12:47.842Z,120.40
2019-04-07T01:15:15.274Z,122.23
2019-04-07T01:17:42.611Z,119.50
2019-04-07T01:20:10.584Z,116.00
2019-04-07T01:22:38.023Z,118.90
2019-04-07T01:25:06.341Z,114.40
2019-04-07T01:27:33.709Z,114.47
2019-04-07T01:30:02.001Z,117.47
2019-04-07T01:32:29.465Z,120.40
2019-04-07T01:34:57.159Z,120.37
2019-04-07T01:37:25.230Z,115.00
2019-04-07T01:39:52.839Z,117.67
2019-04-07T01:42:28.048Z,115.63
2019-04-07T01:45:08.910Z,118.60
2019-04-07T01:47:53.053Z,117.43
2019-04-07T01:50:38.546Z,115.90
2019-04-07T01:53:10.073Z,117.03
2019-04-07T01:55:50.925Z,114.37
2019-04-07T01:58:36.282Z,119.43
2019-04-07T02:01:10.874Z,117.20
2019-04-07T02:03:56.439Z,118.43
2019-04-07T02:06:31.288Z,118.83
2019-04-07T02:09:03.033Z,129.47
2019-04-07T02:11:38.562Z,131.60
2019-04-07T02:14:20.179Z,136.17
2019-04-07T02:17:06.422Z,131.03
2019-04-07T02:19:47.194Z,128.50
2019-04-07T02:22:32.415Z,138.43
2019-04-07T02:25:16.194Z,131.80
2019-04-07T02:27:51.162Z,128.23
2019-04-07T02:30:23.708Z,126.17
2019-04-07T02:33:09.364Z,129.03
2019-04-07T02:35:39.559Z,127.83
2019-04-07T02:38:14.599Z,129.90
2019-04-07T02:40:51.422Z,131.43
2019-04-07T02:43:27.330Z,142.20
2019-04-07T02:46:02.554Z,127.00
2019-04-07T02:48:44.580Z,137.07
2019-04-07T02:51:32.179Z,135.33
2019-04-07T02:54:16.118Z,130.70
2019-04-07T02:56:48.503Z,123.27
2019-04-07T02:59:33.708Z,126.17
2019-04-07T03:02:08.492Z,122.67
2019-04-07T03:04:44.445Z,132.10
2019-04-07T03:07:22.297Z,125.43
2019-04-07T03:10:00.288Z,117.43
2019-04-07T03:12:29.329Z,121.30
2019-04-07T03:15:01.916Z,122.30
2019-04-07T03:17:37.785Z,114.03
2019-04-07T03:20:07.510Z,112.83
2019-04-07T03:22:53.267Z,117.30
2019-04-07T03:25:26.025Z,118.33
2019-04-07T03:28:10.324Z,118.53
2019-04-07T03:30:58.448Z,117.07
2019-04-07T03:33:42.623Z,113.30
2019-04-07T03:36:29.170Z,116.77
2019-04-07T03:39:02.382Z,105.73
2019-04-07T03:41:33.111Z,114.30
2019-04-07T03:44:07.907Z,109.33
2019-04-07T03:46:42.919Z,107.33
2019-04-07T03:49:24.152Z,104.80
2019-04-07T03:51:59.855Z,110.20
2019-04-07T03:54:45.161Z,103.73
2019-04-07T03:57:31.168Z,103.37
2019-04-07T04:00:16.867Z,104.73
2019-04-07T04:02:54.893Z,98.17
2019-04-07T04:05:24.269Z,100.73
2019-04-07T04:07:56.791Z,96.03
2019-04-07T04:10:28.971Z,101.13
2019-04-07T04:13:09.800Z,94.43
2019-04-07T04:15:44.914Z,89.30
2019-04-07T04:18:12.304Z,88.43
2019-04-07T04:20:39.663Z,93.13
2019-04-07T04:23:07.791Z,85.60
2019-04-07T04:25:35.528Z,88.50
2019-04-07T04:28:03.018Z,83.30
2019-04-07T04:30:30.413Z,88.13
2019-04-07T04:32:57.798Z,86.30
2019-04-07T04:35:25.111Z,89.00
2019-04-07T04:37:53.965Z,81.10
2019-04-07T04:40:22.240Z,86.07
2019-04-07T04:42:50.411Z,79.33
2019-04-07T04:45:18.008Z,80.73
2019-04-07T04:47:46.355Z,85.80
2019-04-07T04:50:14.762Z,82.47
2019-04-07T04:52:42.791Z,81.20
2019-04-07T04:55:11.220Z,85.10
2019-04-07T04:57:38.678Z,82.97
2019-04-07T05:00:08.944Z,81.60
2019-04-07T05:02:36.293Z,84.93
2019-04-07T05:05:08.700Z,82.70
2019-04-07T05:07:48.034Z,80.33
2019-04-07T05:10:03.459Z,84.47
2019-04-07T05:12:31.348Z,81.23
2019-04-07T05:14:58.882Z,83.03
2019-04-07T05:17:26.291Z,79.60
2019-04-07T05:19:54.254Z,84.00
2019-04-07T05:22:21.631Z,104.00
2019-04-07T05:24:48.974Z,100.87
2019-04-07T05:27:16.466Z,93.23
2019-04-07T05:29:44.680Z,88.97
2019-04-07T05:32:12.234Z,82.33
2019-04-07T05:34:40.255Z,85.03
2019-04-07T05:37:07.680Z,80.57
2019-04-07T05:39:34.973Z,88.30
2019-04-07T05:42:02.357Z,88.47
2019-04-07T05:44:29.683Z,91.27
2019-04-07T05:46:57.060Z,82.53
2019-04-07T05:49:24.426Z,74.80
2019-04-07T05:51:51.759Z,77.33
2019-04-07T05:54:20.757Z,76.47
2019-04-07T05:56:48.274Z,73.67
2019-04-07T05:59:15.711Z,82.00
2019-04-07T06:01:43.123Z,80.57
2019-04-07T06:04:14.357Z,79.97
2019-04-07T06:06:41.469Z,82.37
2019-04-07T06:09:09.410Z,82.63
2019-04-07T06:11:36.858Z,79.50
2019-04-07T06:14:04.243Z,75.37
2019-04-07T06:16:32.190Z,77.10
2019-04-07T06:19:03.690Z,74.10
2019-04-07T06:21:28.677Z,72.43
2019-04-07T06:23:59.387Z,70.30
2019-04-07T06:26:25.551Z,69.63
2019-04-07T06:28:57.367Z,68.97
2019-04-07T06:31:24.513Z,73.37
2019-04-07T06:33:51.387Z,70.20
2019-04-07T06:36:20.315Z,68.50
2019-04-07T06:38:52.330Z,70.17
2019-04-07T06:41:17.362Z,74.67
2019-04-07T06:43:45.183Z,73.63
2019-04-07T06:46:27.649Z,80.63
2019-04-07T06:49:06.001Z,83.13
2019-04-07T06:51:46.991Z,75.67
2019-04-07T06:54:32.995Z,66.20
2019-04-07T06:57:17.590Z,61.83
2019-04-07T07:00:02.424Z,71.73
2019-04-07T07:02:34.141Z,72.53
2019-04-07T07:05:05.865Z,66.53
2019-04-07T07:07:45.885Z,66.37
2019-04-07T07:10:27.412Z,60.83
2019-04-07T07:12:47.884Z,64.27
2019-04-07T07:15:17.859Z,65.43
2019-04-07T07:18:04.655Z,47.70
2019-04-07T07:20:42.829Z,52.80
2019-04-07T07:23:15.595Z,55.70
2019-04-07T07:25:44.253Z,57.10
2019-04-07T07:28:13.367Z,53.83
2019-04-07T07:30:42.619Z,55.77
2019-04-07T07:33:11.188Z,55.93
2019-04-07T07:35:38.936Z,56.73
2019-04-07T07:38:07.536Z,54.93
2019-04-07T07:40:35.261Z,60.40
2019-04-07T07:43:03.458Z,56.87
2019-04-07T07:45:31.736Z,59.17
2019-04-07T07:47:59.807Z,56.60
2019-04-07T07:50:28.347Z,59.00
2019-04-07T07:52:56.167Z,59.77
2019-04-07T07:55:23.650Z,56.17
2019-04-07T07:57:54.209Z,52.60
2019-04-07T08:00:20.028Z,56.87
2019-04-07T08:02:50.261Z,54.83
2019-04-07T08:05:17.176Z,55.50
2019-04-07T08:07:47.135Z,58.37
2019-04-07T08:10:13.648Z,52.90
2019-04-07T08:12:41.192Z,50.27
2019-04-07T08:15:09.178Z,49.20
2019-04-07T08:17:36.731Z,53.40
2019-04-07T08:20:05.724Z,50.70
2019-04-07T08:22:39.627Z,46.50
2019-04-07T08:25:02.423Z,52.40
2019-04-07T08:27:31.024Z,52.10
2019-04-07T08:29:58.891Z,54.07
2019-04-07T08:32:29.628Z,57.20
2019-04-07T08:34:55.879Z,71.47
2019-04-07T08:37:23.522Z,72.77
2019-04-07T08:39:50.911Z,75.60
2019-04-07T08:42:19.519Z,73.80
2019-04-07T08:44:47.441Z,75.10
2019-04-07T08:47:20.778Z,72.70
2019-04-07T08:49:43.887Z,67.07
2019-04-07T08:52:12.402Z,72.13
2019-04-07T08:54:40.328Z,64.80
2019-04-07T08:57:08.275Z,70.77
2019-04-07T08:59:39.589Z,73.90
2019-04-07T09:02:05.411Z,82.10
2019-04-07T09:04:32.858Z,71.93
2019-04-07T09:07:02.917Z,70.47
2019-04-07T09:09:34.096Z,68.17
2019-04-07T09:11:58.357Z,68.80
2019-04-07T09:14:25.714Z,62.23
2019-04-07T09:17:04.542Z,68.13
2019-04-07T09:19:36.813Z,75.83
2019-04-07T09:22:23.163Z,71.10
2019-04-07T09:24:53.183Z,72.03
2019-04-07T09:27:23.556Z,66.07
2019-04-07T09:29:57.967Z,62.77
2019-04-07T09:32:42.770Z,61.13
2019-04-07T09:35:12.312Z,70.07
2019-04-07T09:37:41.664Z,63.97
2019-04-07T09:40:12.866Z,61.13
2019-04-07T09:42:44.772Z,62.17
2019-04-07T09:45:13.878Z,63.87
2019-04-07T09:47:51.812Z,71.37
2019-04-07T09:50:36.425Z,90.87
2019-04-07T09:53:08.366Z,60.73
2019-04-07T09:55:45.108Z,60.63
2019-04-07T09:58:28.609Z,62.23
2019-04-07T10:01:00.345Z,66.23
2019-04-07T10:03:38.687Z,64.30
2019-04-07T10:06:10.538Z,64.57
2019-04-07T10:08:47.760Z,69.43
2019-04-07T10:11:19.832Z,65.87
2019-04-07T10:13:55.380Z,60.90
2019-04-07T10:16:32.959Z,75.80
2019-04-07T10:19:05.461Z,71.47
2019-04-07T10:21:43.064Z,59.00
2019-04-07T10:24:27.313Z,54.60
2019-04-07T10:27:02.451Z,59.90
2019-04-07T10:29:34.212Z,60.50
2019-04-07T10:32:23.832Z,60.77
2019-04-07T10:34:59.158Z,68.37
2019-04-07T10:37:34.454Z,66.80
2019-04-07T10:40:16.698Z,69.93
2019-04-07T10:42:55.485Z,64.57
2019-04-07T10:45:25.013Z,63.53
2019-04-07T10:47:56.831Z,69.93
2019-04-07T10:50:42.668Z,61.13
2019-04-07T10:53:12.501Z,65.27
2019-04-07T10:55:45.204Z,60.87
2019-04-07T10:58:33.142Z,66.17
2019-04-07T11:01:08.986Z,63.07
2019-04-07T11:03:38.068Z,60.63
2019-04-07T11:06:13.758Z,63.23
2019-04-07T11:08:55.444Z,59.17
2019-04-07T11:11:24.600Z,60.13
2019-04-07T11:13:53.628Z,56.77
2019-04-07T11:16:22.687Z,58.50
2019-04-07T11:19:00.497Z,57.03
2019-04-07T11:21:32.512Z,60.83
2019-04-07T11:24:05.363Z,54.10
2019-04-07T11:26:52.742Z,55.53
2019-04-07T11:29:31.440Z,51.00
2019-04-07T11:32:06.532Z,50.10
2019-04-07T11:34:45.503Z,54.83
2019-04-07T11:37:15.538Z,49.80
2019-04-07T11:39:50.701Z,49.23
2019-04-07T11:42:23.005Z,48.63
2019-04-07T11:44:54.730Z,49.73
2019-04-07T11:47:26.771Z,50.97
2019-04-07T11:50:12.510Z,46.43
2019-04-07T11:52:44.670Z,53.73
2019-04-07T11:55:30.050Z,52.30
2019-04-07T11:58:11.571Z,46.67
2019-04-07T12:00:51.545Z,46.90
2019-04-07T12:03:30.004Z,46.53
2019-04-07T12:06:04.523Z,45.27
2019-04-07T12:08:36.161Z,44.03
2019-04-07T12:11:13.148Z,43.70
2019-04-07T12:13:43.972Z,44.33
2019-04-07T12:16:14.550Z,41.73
2019-04-07T12:18:44.089Z,45.63
2019-04-07T12:21:29.828Z,50.30
2019-04-07T12:24:04.794Z,50.07
2019-04-07T12:26:37.315Z,45.27
2019-04-07T12:29:07.962Z,47.67
2019-04-07T12:31:52.157Z,45.43
2019-04-07T12:34:27.546Z,48.00
2019-04-07T12:36:59.135Z,46.27
2019-04-07T12:39:27.239Z,41.70
2019-04-07T12:42:13.467Z,39.53
2019-04-07T12:44:59.406Z,41.03
2019-04-07T12:47:28.502Z,35.90
2019-04-07T12:50:18.603Z,35.60
2019-04-07T12:52:49.154Z,36.70
2019-04-07T12:55:21.885Z,35.23
2019-04-07T12:57:56.922Z,35.90
2019-04-07T13:00:35.487Z,36.23
2019-04-07T13:03:05.900Z,35.83
2019-04-07T13:05:38.012Z,38.13
2019-04-07T13:08:22.543Z,41.40
2019-04-07T13:10:59.185Z,35.67
2019-04-07T13:13:44.947Z,33.00
2019-04-07T13:16:30.533Z,35.97
2019-04-07T13:19:10.216Z,36.13
2019-04-07T13:21:44.674Z,34.93
2019-04-07T13:24:34.104Z,35.60
2019-04-07T13:26:59.952Z,35.00
2019-04-07T13:29:30.209Z,33.33
2019-04-07T13:32:00.110Z,38.07
2019-04-07T13:34:31.147Z,36.23
2019-04-07T13:37:06.009Z,36.13
2019-04-07T13:39:45.210Z,36.27
2019-04-07T13:42:18.287Z,40.37
2019-04-07T13:45:04.487Z,39.63
2019-04-07T13:47:49.714Z,36.73
2019-04-07T13:50:35.469Z,40.10
2019-04-07T13:53:19.339Z,34.27
2019-04-07T13:56:06.163Z,34.47
2019-04-07T13:58:51.971Z,30.97
2019-04-07T14:01:22.117Z,30.97
2019-04-07T14:03:58.888Z,31.23
2019-04-07T14:06:34.025Z,29.37
2019-04-07T14:09:20.176Z,25.20
2019-04-07T14:12:00.276Z,27.53
2019-04-07T14:14:36.033Z,26.27
2019-04-07T14:17:20.808Z,27.50
2019-04-07T14:19:50.909Z,21.40
2019-04-07T14:22:26.600Z,23.83
2019-04-07T14:25:14.479Z,20.53
2019-04-07T14:27:55.819Z,20.63
2019-04-07T14:30:29.101Z,24.17
2019-04-07T14:33:04.330Z,23.73
2019-04-07T14:35:33.543Z,28.77
2019-04-07T14:38:05.270Z,25.87
2019-04-07T14:40:34.647Z,24.40
2019-04-07T14:43:07.089Z,26.43
2019-04-07T14:45:39.570Z,27.63
2019-04-07T14:48:27.137Z,28.93
2019-04-07T14:50:59.287Z,27.17
2019-04-07T14:53:33.817Z,28.80
2019-04-07T14:56:05.840Z,26.87
2019-04-07T14:58:43.459Z,26.80
2019-04-07T15:01:25.721Z,26.90
2019-04-07T15:03:53.297Z,20.77
2019-04-07T15:06:20.703Z,26.17
2019-04-07T15:08:49.865Z,26.23
2019-04-07T15:11:19.545Z,24.17
2019-04-07T15:13:47.435Z,21.20
2019-04-07T15:16:15.306Z,22.97
2019-04-07T15:18:42.730Z,23.77
2019-04-07T15:21:10.969Z,18.67
2019-04-07T15:23:38.565Z,14.87
2019-04-07T15:26:05.930Z,16.80
2019-04-07T15:28:34.083Z,16.23
2019-04-07T15:31:02.932Z,15.97
2019-04-07T15:33:33.629Z,18.50
2019-04-07T15:36:00.023Z,16.80
2019-04-07T15:38:28.451Z,18.97
2019-04-07T15:40:56.739Z,19.77
2019-04-07T15:43:25.431Z,21.63
2019-04-07T15:45:52.872Z,21.40
2019-04-07T15:48:23.239Z,19.43
2019-04-07T15:50:49.174Z,21.80
2019-04-07T15:53:16.680Z,21.60
2019-04-07T15:55:52.991Z,21.83
2019-04-07T15:58:13.502Z,28.57
2019-04-07T16:00:41.918Z,25.70
2019-04-07T16:03:12.719Z,24.67
2019-04-07T16:05:42.400Z,20.20
2019-04-07T16:08:07.283Z,23.50
2019-04-07T16:10:34.837Z,23.17
2019-04-07T16:13:02.622Z,22.37
2019-04-07T16:15:30.791Z,23.17
2019-04-07T16:17:58.786Z,26.10
2019-04-07T16:20:31.531Z,21.60
2019-04-07T16:22:55.473Z,24.90
2019-04-07T16:25:27.502Z,29.23
2019-04-07T16:27:52.017Z,24.60
2019-04-07T16:30:20.361Z,21.47
2019-04-07T16:32:48.106Z,25.80
2019-04-07T16:35:16.572Z,25.60
2019-04-07T16:37:44.164Z,26.77
2019-04-07T16:40:11.765Z,28.57
2019-04-07T16:42:39.279Z,25.77
2019-04-07T16:45:11.369Z,29.37
2019-04-07T16:47:37.036Z,27.10
2019-04-07T16:50:06.468Z,29.30
2019-04-07T16:52:35.193Z,25.63
2019-04-07T16:55:02.517Z,32.37
2019-04-07T16:57:32.300Z,23.90
2019-04-07T16:59:59.483Z,23.97
2019-04-07T17:02:27.058Z,24.70
2019-04-07T17:04:54.713Z,22.63
2019-04-07T17:07:23.105Z,21.70
2019-04-07T17:09:52.922Z,22.27
2019-04-07T17:12:20.309Z,23.17
2019-04-07T17:14:47.735Z,24.33
2019-04-07T17:17:19.065Z,22.50
2019-04-07T17:19:44.225Z,24.60
2019-04-07T17:22:14.019Z,26.13
2019-04-07T17:24:40.982Z,23.13
2019-04-07T17:27:11.361Z,19.97
2019-04-07T17:29:38.334Z,23.03
2019-04-07T17:32:06.989Z,21.93
2019-04-07T17:34:35.485Z,24.57
2019-04-07T17:37:03.992Z,24.27
2019-04-07T17:39:42.415Z,23.27
2019-04-07T17:42:12.135Z,25.72
2019-04-07T17:44:48.340Z,24.18
2019-04-07T17:47:36.665Z,23.10
2019-04-07T17:50:06.571Z,21.90
2019-04-07T17:52:35.819Z,31.33
2019-04-07T17:55:10.852Z,29.35
2019-04-07T17:57:56.473Z,29.27
2019-04-07T18:00:43.527Z,29.60
2019-04-07T18:03:29.225Z,33.13
2019-04-07T18:06:03.853Z,40.97
2019-04-07T18:08:36.246Z,50.13
2019-04-07T18:11:11.807Z,43.23
2019-04-07T18:13:56.654Z,42.70
2019-04-07T18:16:25.823Z,40.90
2019-04-07T18:18:57.979Z,33.67
2019-04-07T18:21:31.854Z,35.27
2019-04-07T18:24:18.789Z,31.07
2019-04-07T18:26:48.164Z,40.17
2019-04-07T18:29:32.473Z,70.33
2019-04-07T18:32:11.226Z,45.67
2019-04-07T18:34:43.976Z,40.67
2019-04-07T18:37:16.840Z,42.58
2019-04-07T18:39:55.057Z,34.57
2019-04-07T18:42:41.424Z,39.97
2019-04-07T18:45:12.246Z,36.20
2019-04-07T18:47:39.903Z,39.97
2019-04-07T18:50:27.377Z,34.37
2019-04-07T18:53:05.216Z,34.73
2019-04-07T18:55:50.551Z,34.53
2019-04-07T18:58:20.383Z,34.97
2019-04-07T19:00:50.665Z,34.37
2019-04-07T19:03:29.631Z,36.53
2019-04-07T19:06:07.446Z,33.97
2019-04-07T19:08:35.360Z,35.93
2019-04-07T19:11:14.919Z,32.63
2019-04-07T19:13:46.854Z,34.23
2019-04-07T19:16:31.877Z,40.53
2019-04-07T19:19:00.999Z,40.33
2019-04-07T19:21:30.012Z,38.57
2019-04-07T19:24:16.369Z,37.80
2019-04-07T19:26:49.815Z,40.40
2019-04-07T19:29:32.277Z,41.30
2019-04-07T19:32:17.877Z,50.43
2019-04-07T19:34:47.220Z,43.70
2019-04-07T19:37:18.467Z,44.20
2019-04-07T19:39:46.983Z,50.37
2019-04-07T19:42:16.449Z,49.57
2019-04-07T19:45:04.415Z,51.13
2019-04-07T19:47:36.404Z,46.53
2019-04-07T19:50:11.111Z,50.00
2019-04-07T19:52:58.351Z,46.57
2019-04-07T19:55:33.146Z,49.47
2019-04-07T19:58:15.162Z,52.67
2019-04-07T20:00:44.228Z,48.37
2019-04-07T20:03:16.160Z,50.47
2019-04-07T20:05:54.080Z,51.63
2019-04-07T20:08:39.531Z,52.67
2019-04-07T20:11:30.416Z,51.77
2019-04-07T20:14:03.543Z,51.43
2019-04-07T20:16:45.904Z,81.27
2019-04-07T20:19:15.186Z,79.47
2019-04-07T20:21:56.845Z,66.93
2019-04-07T20:24:29.545Z,61.13
2019-04-07T20:27:17.511Z,56.60
2019-04-07T20:29:52.836Z,59.57
2019-04-07T20:32:35.225Z,65.70
2019-04-07T20:35:15.972Z,59.40
2019-04-07T20:37:55.044Z,54.30
2019-04-07T20:40:41.979Z,60.10
2019-04-07T20:43:11.081Z,57.33
2019-04-07T20:45:42.890Z,56.50
2019-04-07T20:48:14.734Z,57.57
2019-04-07T20:50:49.879Z,62.83
2019-04-07T20:53:30.185Z,53.37
2019-04-07T20:56:14.638Z,54.03
2019-04-07T20:58:53.767Z,48.37
2019-04-07T21:01:26.207Z,51.50
2019-04-07T21:03:55.686Z,54.13
2019-04-07T21:06:27.502Z,55.60
2019-04-07T21:09:11.494Z,45.63
2019-04-07T21:11:58.834Z,46.97
2019-04-07T21:14:39.986Z,46.37
2019-04-07T21:17:24.181Z,52.90
2019-04-07T21:20:09.749Z,50.23
2019-04-07T21:22:51.892Z,51.57
2019-04-07T21:25:23.763Z,47.60
2019-04-07T21:27:54.811Z,51.17
2019-04-07T21:30:24.729Z,51.07
2019-04-07T21:32:57.274Z,56.27
2019-04-07T21:35:38.420Z,62.00
2019-04-07T21:38:26.187Z,55.33
2019-04-07T21:41:02.015Z,52.20
2019-04-07T21:43:31.848Z,57.30
2019-04-07T21:46:07.948Z,57.67
2019-04-07T21:48:37.142Z,54.13
2019-04-07T21:51:14.276Z,54.97
2019-04-07T21:53:39.701Z,53.27
2019-04-07T21:56:11.351Z,49.33
2019-04-07T21:58:56.837Z,51.73
2019-04-07T22:01:26.355Z,53.23
2019-04-07T22:03:58.759Z,52.63
2019-04-07T22:06:44.496Z,59.00
2019-04-07T22:09:17.051Z,52.40
2019-04-07T22:11:45.912Z,56.90
2019-04-07T22:14:13.280Z,57.73
2019-04-07T22:16:40.753Z,57.23
2019-04-07T22:19:11.054Z,60.90
2019-04-07T22:21:37.022Z,63.07
2019-04-07T22:24:04.890Z,57.40
2019-04-07T22:26:33.475Z,54.43
2019-04-07T22:29:03.143Z,59.37
2019-04-07T22:31:31.861Z,56.07
2019-04-07T22:34:01.064Z,61.93
2019-04-07T22:36:29.421Z,61.07
2019-04-07T22:38:59.757Z,69.10
2019-04-07T22:41:26.991Z,70.40
2019-04-07T22:43:55.296Z,77.67
2019-04-07T22:46:26.103Z,78.50
2019-04-07T22:48:55.185Z,79.57
2019-04-07T22:51:20.922Z,79.23
2019-04-07T22:53:48.269Z,78.60
2019-04-07T22:56:16.081Z,75.40
2019-04-07T22:58:44.415Z,73.93
2019-04-07T23:01:12.015Z,75.33
2019-04-07T23:03:39.429Z,73.73
2019-04-07T23:06:06.783Z,71.03
2019-04-07T23:08:35.022Z,74.10
2019-04-07T23:11:02.693Z,80.90
2019-04-07T23:13:30.090Z,79.47
2019-04-07T23:16:09.012Z,79.83
2019-04-07T23:18:26.447Z,77.67
2019-04-07T23:20:53.874Z,72.43
2019-04-07T23:23:21.798Z,72.30
2019-04-07T23:25:49.236Z,71.47
2019-04-07T23:28:16.727Z,74.70
2019-04-07T23:30:45.027Z,69.33
2019-04-07T23:33:12.526Z,70.10
2019-04-07T23:35:39.982Z,69.53
2019-04-07T23:38:07.895Z,73.80
2019-04-07T23:40:35.277Z,67.20
2019-04-07T23:43:02.694Z,73.17
2019-04-07T23:45:30.093Z,64.00
2019-04-07T23:47:57.471Z,67.83
2019-04-07T23:50:25.205Z,65.20
2019-04-07T23:52:52.548Z,66.77
2019-04-07T23:55:20.493Z,60.70
2019-04-07T23:57:48.699Z,66.23
